Details for Korean Air at RKSS




Go Back


Latest METAR
Local Time

RKSS 220800Z 27008KT CAVOK 24/08 Q1015 NOSIG
22/09/2018, 17:51:54

Description
Results
Korean Air Logo
Number of Pilots based at RKSS
0 Pilots Based here
Number of Korean Air Flights Departed from RKSS
0 Flights Departed
Number of Korean Air Flights Arrived at RKSS
0 Flights Arrived
Number of Korean Air Schedules Departing from RKSS
77 Schedules
Number of Korean Air Schedules Arriving at RKSS
77 Schedules
Number of Korean Air Schedules Departing from RKSS availible today
58 Schedules Today
Number of Korean Air Schedules Arriving at RKSS availible today
57 Schedules Today
Average Landing Rate at RKSS
0 fpm
Korean Air Average Landing Rate at RKSS
0 fpm
Total Fuel Purchased at RKSS by Korean Air
0.00 kgs / 0.00 lbs

Pilots Based at RKSS


Pilot ID
Pilot Name
Pilot Rank
No. of Flights
No. of Flying Hours
There are no pilots assigned to this hub!   Will you be the first?
Content